| time (UTC) | temp F | wind direction | speed MPH | gust MPH | rain 1hr in | rain 24hr in | rain mn in | humidity % | barometer mb |
| 20260504223536 | 77 | 0.0 | 4.0 | 0.00 | 0.00 | 0.00 | 32 | 1012.2 | |
| 20260504222536 | 78 | 0.0 | 1.0 | 0.00 | 0.00 | 0.00 | 31 | 1012.3 | |
| 20260504221516 | 78 | 0.0 | 1.0 | 0.00 | 0.00 | 0.00 | 31 | 1012.4 | |
| 20260504220516 | 79 | 0.0 | 2.0 | 0.00 | 0.00 | 0.00 | 30 | 1012.4 | |
| 20260504215516 | 79 | 0.0 | 2.0 | 0.00 | 0.00 | 0.00 | 30 | 1012.5 | |
| 20260504214516 | 80 | 0.0 | 2.0 | 0.00 | 0.00 | 0.00 | 30 | 1012.3 | |
| 20260504213516 | 80 | 0.0 | 5.0 | 0.00 | 0.00 | 0.00 | 30 | 1012.4 | |
| 20260504212516 | 80 | 0.0 | 2.0 | 0.00 | 0.00 | 0.00 | 28 | 1012.6 | |
| 20260504211516 | 80 | 0.0 | 3.0 | 0.00 | 0.00 | 0.00 | 29 | 1012.6 | |
| 20260504210516 | 80 | 0.0 | 1.0 | 0.00 | 0.00 | 0.00 | 27 | 1012.5 | |
| 20260504205516 | 80 | 135 | 1.0 | 6.0 | 0.00 | 0.00 | 0.00 | 30 | 1012.6 |
| 20260504204516 | 80 | 158 | 1.0 | 5.0 | 0.00 | 0.00 | 0.00 | 29 | 1012.7 |
| 20260504203517 | 81 | 203 | 1.0 | 2.0 | 0.00 | 0.00 | 0.00 | 29 | 1012.9 |
| 20260504202516 | 81 | 0.0 | 3.0 | 0.00 | 0.00 | 0.00 | 30 | 1013.1 | |
| 20260504201516 | 80 | 158 | 1.0 | 5.0 | 0.00 | 0.00 | 0.00 | 30 | 1013.2 |
| 20260504200516 | 81 | 0.0 | 2.0 | 0.00 | 0.00 | 0.00 | 30 | 1013.3 | |
| 20260504195516 | 81 | 0.0 | 1.0 | 0.00 | 0.00 | 0.00 | 31 | 1013.4 | |
| 20260504194516 | 81 | 0.0 | 1.0 | 0.00 | 0.00 | 0.00 | 32 | 1013.5 | |
| 20260504193516 | 80 | 0.0 | 1.0 | 0.00 | 0.00 | 0.00 | 32 | 1013.5 | |
| 20260504192516 | 80 | 158 | 1.0 | 5.0 | 0.00 | 0.00 | 0.00 | 32 | 1013.7 |
| 20260504191516 | 80 | 135 | 2.0 | 4.0 | 0.00 | 0.00 | 0.00 | 33 | 1013.8 |
| 20260504190516 | 80 | 113 | 1.0 | 4.0 | 0.00 | 0.00 | 0.00 | 35 | 1013.9 |
| 20260504185516 | 78 | 68 | 1.0 | 5.0 | 0.00 | 0.00 | 0.00 | 34 | 1014.2 |
| 20260504184536 | 79 | 0.0 | 2.0 | 0.00 | 0.00 | 0.00 | 31 | 1014.3 | |
| 20260504183516 | 79 | 315 | 1.0 | 4.0 | 0.00 | 0.00 | 0.00 | 31 | 1014.3 |
| 20260504182536 | 78 | 113 | 1.0 | 3.0 | 0.00 | 0.00 | 0.00 | 33 | 1014.5 |
| 20260504181516 | 77 | 113 | 4.0 | 9.0 | 0.00 | 0.00 | 0.00 | 36 | 1014.4 |
| 20260504180556 | 78 | 135 | 1.0 | 3.0 | 0.00 | 0.00 | 0.00 | 33 | 1014.4 |
| 20260504175516 | 78 | 0.0 | 2.0 | 0.00 | 0.00 | 0.00 | 33 | 1014.5 | |
| 20260504174516 | 78 | 0.0 | 3.0 | 0.00 | 0.00 | 0.00 | 33 | 1014.7 | |
| 20260504173516 | 77 | 338 | 1.0 | 3.0 | 0.00 | 0.00 | 0.00 | 34 | 1014.9 |
| 20260504172516 | 77 | 135 | 1.0 | 3.0 | 0.00 | 0.00 | 0.00 | 34 | 1014.9 |
| 20260504171516 | 77 | 315 | 1.0 | 5.0 | 0.00 | 0.00 | 0.00 | 34 | 1015.0 |
| 20260504170517 | 76 | 0.0 | 2.0 | 0.00 | 0.00 | 0.00 | 36 | 1015.2 | |
| 20260504150516 | 70 | 135 | 1.0 | 5.0 | 0.00 | 0.00 | 0.00 | 49 | 1016.6 |
| 20260504140517 | 67 | 0.0 | 2.0 | 0.00 | 0.00 | 0.00 | 59 | 1016.7 | |
| 20260504081017 | 49 | 0.0 | 0.0 | 0.00 | 0.00 | 0.00 | 80 | 1015.7 | |
| 20260504050017 | 52 | 0.0 | 0.0 | 0.00 | 0.00 | 0.00 | 75 | 1016.1 | |
| 20260504045017 | 51 | 0.0 | 0.0 | 0.00 | 0.00 | 0.00 | 76 | 1016.0 | |
| 20260504044017 | 51 | 0.0 | 0.0 | 0.00 | 0.00 | 0.00 | 76 | 1016.1 | |
| 20260504043017 | 51 | 0.0 | 0.0 | 0.00 | 0.00 | 0.00 | 75 | 1016.2 | |
| 20260504042017 | 51 | 0.0 | 0.0 | 0.00 | 0.00 | 0.00 | 74 | 1016.3 | |
| 20260504041017 | 52 | 0.0 | 0.0 | 0.00 | 0.00 | 0.00 | 73 | 1016.3 | |
| 20260504040015 | 52 | 0.0 | 0.0 | 0.00 | 0.00 | 0.00 | 72 | 1016.3 | |
| 20260504035016 | 53 | 0.0 | 0.0 | 0.00 | 0.00 | 0.00 | 71 | 1016.4 | |
| 20260504034016 | 53 | 0.0 | 0.0 | 0.00 | 0.00 | 0.00 | 71 | 1016.5 | |
| 20260504033016 | 53 | 0.0 | 0.0 | 0.00 | 0.00 | 0.00 | 69 | 1016.5 | |
| 20260504032039 | 54 | 0.0 | 0.0 | 0.00 | 0.00 | 0.00 | 68 | 1016.5 | |
| 20260504031516 | 54 | 0.0 | 0.0 | 0.00 | 0.00 | 0.00 | 68 | 1016.5 | |
| 20260504030516 | 55 | 0.0 | 0.0 | 0.00 | 0.00 | 0.00 | 66 | 1016.5 | |
| 20260504025516 | 55 | 0.0 | 0.0 | 0.00 | 0.00 | 0.00 | 66 | 1016.4 | |
| 20260504024516 | 55 | 0.0 | 0.0 | 0.00 | 0.00 | 0.00 | 65 | 1016.3 | |
| 20260504023516 | 56 | 0.0 | 0.0 | 0.00 | 0.00 | 0.00 | 64 | 1016.3 | |
| 20260504022536 | 56 | 0.0 | 0.0 | 0.00 | 0.00 | 0.00 | 63 | 1016.1 | |
| 20260504022103 | 56 | 0.0 | 0.0 | 0.00 | 0.00 | 0.00 | 63 | 1016.1 | |
| 20260504021016 | 56 | 0.0 | 0.0 | 0.00 | 0.00 | 0.00 | 62 | 1015.9 | |
| 20260504020017 | 56 | 0.0 | 0.0 | 0.00 | 0.00 | 0.00 | 62 | 1015.7 | |
| 20260504015016 | 57 | 0.0 | 0.0 | 0.00 | 0.00 | 0.00 | 61 | 1015.6 | |
| 20260504014016 | 57 | 0.0 | 0.0 | 0.00 | 0.00 | 0.00 | 61 | 1015.6 | |
| 20260504013016 | 57 | 0.0 | 0.0 | 0.00 | 0.00 | 0.00 | 59 | 1015.4 | |
| 20260504012016 | 58 | 0.0 | 0.0 | 0.00 | 0.00 | 0.00 | 58 | 1015.4 | |
| 20260504011517 | 58 | 0.0 | 0.0 | 0.00 | 0.00 | 0.00 | 58 | 1015.4 | |
| 20260504010516 | 59 | 0.0 | 0.0 | 0.00 | 0.00 | 0.00 | 56 | 1015.2 | |
| 20260504005516 | 59 | 0.0 | 0.0 | 0.00 | 0.00 | 0.00 | 55 | 1015.1 | |
| 20260504004516 | 60 | 0.0 | 0.0 | 0.00 | 0.00 | 0.00 | 54 | 1015.0 | |
| 20260504003516 | 61 | 0.0 | 0.0 | 0.00 | 0.00 | 0.00 | 53 | 1014.9 | |
| 20260504002516 | 61 | 0.0 | 0.0 | 0.00 | 0.00 | 0.00 | 51 | 1014.8 | |
| 20260504001516 | 62 | 0.0 | 0.0 | 0.00 | 0.00 | 0.00 | 48 | 1014.7 | |
| 20260504000516 | 64 | 0.0 | 0.0 | 0.00 | 0.00 | 0.00 | 46 | 1014.6 | |
| 20260503235536 | 64 | 0.0 | 0.0 | 0.00 | 0.00 | 0.00 | 45 | 1014.3 | |
| 20260503234536 | 65 | 0.0 | 0.0 | 0.00 | 0.00 | 0.00 | 42 | 1014.4 | |
| 20260503233536 | 66 | 0.0 | 0.0 | 0.00 | 0.00 | 0.00 | 42 | 1014.4 | |
| 20260503232516 | 66 | 0.0 | 1.0 | 0.00 | 0.00 | 0.00 | 41 | 1014.3 | |
| 20260503231516 | 67 | 0.0 | 3.0 | 0.00 | 0.00 | 0.00 | 39 | 1014.3 | |
| 20260503230536 | 68 | 0.0 | 1.0 | 0.00 | 0.00 | 0.00 | 38 | 1014.4 | |
| 20260503225516 | 69 | 0.0 | 0.0 | 0.00 | 0.00 | 0.00 | 37 | 1014.5 | |
| 20260503224516 | 70 | 23 | 1.0 | 6.0 | 0.00 | 0.00 | 0.00 | 36 | 1014.6 |